Time;durP1;ratioP1;P1;durP2;ratioP2;P2;SDS_P1;SDS_P2;PMS_P1;PMS_P2;Temp;Humidity;BMP_temperature;BMP_pressure;BME280_temperature;BME280_humidity;BME280_pressure;Samples;Min_cycle;Max_cycle;Signal;HPM_P1;HPM_P2
2023/08/21 00:02:21;;;;;;;9.52;5.50;;;;;;;;;;4923350;29;20059;-77
2023/08/21 00:04:47;;;;;;;6.88;4.93;;;;;;;;;;4923095;29;20054;-76
2023/08/21 00:07:12;;;;;;;8.35;5.47;;;;;;;;;;4922302;28;20083;-78
2023/08/21 00:09:38;;;;;;;5.53;4.93;;;;;;;;;;4922810;29;20082;-78
2023/08/21 00:12:04;;;;;;;7.57;5.22;;;;;;;;;;4928324;28;20051;-78
2023/08/21 00:14:29;;;;;;;5.55;4.82;;;;;;;;;;4938609;29;20059;-76
2023/08/21 00:16:55;;;;;;;6.38;4.97;;;;;;;;;;4929098;29;20054;-78
2023/08/21 00:19:20;;;;;;;6.55;5.05;;;;;;;;;;4924346;28;20052;-77
2023/08/21 00:21:45;;;;;;;5.55;4.93;;;;;;;;;;4922833;29;20058;-77
2023/08/21 00:24:11;;;;;;;5.40;4.90;;;;;;;;;;4923260;28;20071;-77
2023/08/21 00:26:36;;;;;;;5.70;5.15;;;;;;;;;;4922987;29;20401;-77
2023/08/21 00:29:02;;;;;;;5.50;4.85;;;;;;;;;;4921944;29;20151;-79
2023/08/21 00:31:27;;;;;;;5.70;5.00;;;;;;;;;;4921773;28;20126;-77
2023/08/21 00:33:52;;;;;;;9.45;5.38;;;;;;;;;;4922895;29;20091;-77
2023/08/21 00:36:20;;;;;;;7.75;5.78;;;;;;;;;;4905437;29;20157;-78
2023/08/21 00:38:45;;;;;;;6.35;5.07;;;;;;;;;;4922716;29;20465;-78
2023/08/21 00:41:12;;;;;;;6.70;5.38;;;;;;;;;;4904957;29;20190;-77
2023/08/21 00:43:37;;;;;;;5.65;5.13;;;;;;;;;;4922138;28;20050;-78
2023/08/21 00:46:03;;;;;;;7.28;5.57;;;;;;;;;;4905582;29;20356;-77
2023/08/21 00:48:29;;;;;;;7.22;5.75;;;;;;;;;;4905232;29;20062;-77
2023/08/21 00:50:55;;;;;;;8.88;5.68;;;;;;;;;;4921900;29;20052;-77
2023/08/21 00:53:21;;;;;;;6.20;5.57;;;;;;;;;;4904969;28;20829;-77
2023/08/21 00:55:47;;;;;;;5.97;5.35;;;;;;;;;;4922681;29;20051;-77
2023/08/21 00:58:13;;;;;;;5.97;5.30;;;;;;;;;;4922334;29;20098;-77
2023/08/21 01:00:39;;;;;;;7.47;5.93;;;;;;;;;;4922302;28;20051;-78
2023/08/21 01:03:06;;;;;;;8.45;5.50;;;;;;;;;;4904586;29;20055;-79
2023/08/21 01:05:32;;;;;;;8.35;5.72;;;;;;;;;;4921568;29;20043;-77
2023/08/21 01:08:24;;;;;;;7.85;5.47;;;;;;;;;;4905010;29;20059;-79
2023/08/21 01:11:07;;;;;;;7.38;4.85;;;;;;;;;;4922490;29;20054;-77
2023/08/21 01:13:40;;;;;;;9.00;5.70;;;;;;;;;;4903986;29;20059;-77
2023/08/21 01:16:07;;;;;;;10.20;5.93;;;;;;;;;;4920125;29;20043;-78
2023/08/21 01:18:34;;;;;;;6.70;5.22;;;;;;;;;;4904947;29;20095;-78
2023/08/21 01:21:03;;;;;;;6.97;5.57;;;;;;;;;;4904578;29;20043;-77
2023/08/21 01:23:36;;;;;;;6.35;5.72;;;;;;;;;;4920931;28;20063;-77
2023/08/21 01:26:02;;;;;;;7.72;5.47;;;;;;;;;;4922069;29;20047;-78
2023/08/21 01:28:31;;;;;;;6.78;5.43;;;;;;;;;;4921233;29;20056;-77
2023/08/21 01:31:34;;;;;;;7.05;5.88;;;;;;;;;;4898486;29;20162;-78
2023/08/21 01:34:06;;;;;;;7.47;5.80;;;;;;;;;;4884196;29;20517;-78
2023/08/21 01:36:31;;;;;;;7.38;6.38;;;;;;;;;;4919065;28;20146;-78
2023/08/21 01:38:57;;;;;;;8.05;5.93;;;;;;;;;;4902871;29;20054;-77
2023/08/21 01:41:24;;;;;;;8.35;6.00;;;;;;;;;;4903890;28;20090;-77
2023/08/21 01:43:50;;;;;;;7.70;6.00;;;;;;;;;;4908819;29;20051;-78
2023/08/21 01:46:15;;;;;;;6.45;5.82;;;;;;;;;;4926063;29;20076;-78
2023/08/21 01:48:41;;;;;;;8.60;6.45;;;;;;;;;;4926202;28;20054;-78
2023/08/21 01:51:06;;;;;;;8.35;5.90;;;;;;;;;;4925525;29;20047;-79
2023/08/21 01:53:32;;;;;;;8.43;5.70;;;;;;;;;;4924814;28;20057;-77
2023/08/21 01:55:57;;;;;;;7.60;5.85;;;;;;;;;;4925514;29;20055;-78
2023/08/21 01:58:23;;;;;;;6.32;5.35;;;;;;;;;;4908555;29;20048;-77
2023/08/21 02:00:49;;;;;;;6.10;5.50;;;;;;;;;;4907768;29;20398;-78
2023/08/21 02:03:14;;;;;;;8.05;5.68;;;;;;;;;;4924914;29;20083;-77
2023/08/21 02:05:40;;;;;;;8.27;6.18;;;;;;;;;;4907511;28;20049;-77
2023/08/21 02:08:12;;;;;;;8.13;6.20;;;;;;;;;;4908196;29;20051;-77
2023/08/21 02:10:38;;;;;;;10.48;7.43;;;;;;;;;;4925582;29;20278;-78
2023/08/21 02:13:03;;;;;;;7.60;6.82;;;;;;;;;;4924216;28;20552;-77
2023/08/21 02:15:29;;;;;;;8.98;7.15;;;;;;;;;;4907391;29;20039;-77
2023/08/21 02:17:54;;;;;;;11.05;7.82;;;;;;;;;;4924913;28;20070;-77
2023/08/21 02:20:20;;;;;;;13.60;7.35;;;;;;;;;;4925142;29;20057;-77
2023/08/21 02:22:45;;;;;;;10.98;7.97;;;;;;;;;;4925058;29;20058;-77
2023/08/21 02:25:11;;;;;;;10.75;8.00;;;;;;;;;;4907392;29;20054;-77
2023/08/21 02:27:36;;;;;;;10.80;7.30;;;;;;;;;;4924570;29;20055;-77
2023/08/21 02:30:02;;;;;;;14.57;7.25;;;;;;;;;;4925085;28;20552;-79
2023/08/21 02:32:29;;;;;;;8.88;7.45;;;;;;;;;;4907644;29;20048;-77
2023/08/21 02:34:54;;;;;;;8.77;7.32;;;;;;;;;;4923884;29;20062;-77
2023/08/21 02:37:20;;;;;;;10.00;7.03;;;;;;;;;;4924586;28;20062;-77
2023/08/21 02:39:45;;;;;;;10.73;7.68;;;;;;;;;;4891075;29;20051;-79
2023/08/21 02:42:11;;;;;;;8.93;7.20;;;;;;;;;;4924475;28;20048;-77
2023/08/21 02:44:36;;;;;;;7.93;6.80;;;;;;;;;;4924624;29;20058;-78
2023/08/21 02:47:02;;;;;;;8.52;6.65;;;;;;;;;;4906478;29;20046;-77
2023/08/21 02:49:27;;;;;;;10.43;7.82;;;;;;;;;;4923846;28;20508;-77
2023/08/21 02:51:52;;;;;;;9.02;6.80;;;;;;;;;;4907217;29;20165;-77
2023/08/21 02:54:18;;;;;;;8.05;6.60;;;;;;;;;;4923977;28;20561;-78
2023/08/21 02:56:43;;;;;;;11.48;6.20;;;;;;;;;;4924185;29;20051;-76
2023/08/21 02:59:09;;;;;;;9.07;7.68;;;;;;;;;;4923327;29;20139;-78
2023/08/21 03:01:35;;;;;;;7.60;6.80;;;;;;;;;;4923340;28;20055;-77
2023/08/21 03:04:00;;;;;;;8.50;6.90;;;;;;;;;;4923867;29;20528;-78
2023/08/21 03:06:26;;;;;;;8.57;7.07;;;;;;;;;;4907162;29;20055;-77
2023/08/21 03:08:51;;;;;;;7.28;6.47;;;;;;;;;;4923482;29;20109;-77
2023/08/21 03:11:17;;;;;;;10.63;7.03;;;;;;;;;;4923836;29;20040;-78
2023/08/21 03:13:42;;;;;;;8.95;7.13;;;;;;;;;;4906043;29;20568;-77
2023/08/21 03:16:08;;;;;;;8.38;6.82;;;;;;;;;;4906537;29;20048;-78
2023/08/21 03:18:53;;;;;;;8.48;7.05;;;;;;;;;;4906117;29;20412;-77
2023/08/21 03:21:19;;;;;;;8.52;7.07;;;;;;;;;;4916712;29;20445;-79
2023/08/21 03:23:44;;;;;;;9.05;7.28;;;;;;;;;;4906128;28;20531;-77
2023/08/21 03:26:10;;;;;;;8.27;7.00;;;;;;;;;;4924184;29;20481;-78
2023/08/21 03:28:35;;;;;;;13.02;7.63;;;;;;;;;;4907036;29;20048;-77
2023/08/21 03:31:00;;;;;;;9.43;7.45;;;;;;;;;;4904467;29;20048;-77
2023/08/21 03:33:26;;;;;;;11.40;7.82;;;;;;;;;;4903303;29;20056;-79
2023/08/21 03:35:54;;;;;;;9.35;7.93;;;;;;;;;;4922923;28;20055;-78
2023/08/21 03:38:22;;;;;;;10.13;7.68;;;;;;;;;;4907130;29;20039;-78
2023/08/21 03:40:47;;;;;;;8.85;7.50;;;;;;;;;;4916202;29;20083;-78
2023/08/21 03:43:13;;;;;;;10.30;8.00;;;;;;;;;;4914808;29;20051;-76
2023/08/21 03:45:39;;;;;;;8.77;7.65;;;;;;;;;;4909235;29;20048;-77
2023/08/21 03:48:06;;;;;;;8.90;7.72;;;;;;;;;;4923677;28;20043;-78
2023/08/21 03:50:31;;;;;;;9.95;8.18;;;;;;;;;;4923637;29;20051;-76
2023/08/21 03:52:57;;;;;;;12.65;7.45;;;;;;;;;;4905345;29;20040;-77
2023/08/21 03:55:22;;;;;;;8.80;7.00;;;;;;;;;;4905298;29;20091;-76
2023/08/21 03:57:48;;;;;;;9.18;7.18;;;;;;;;;;4905979;29;20075;-77
2023/08/21 04:00:14;;;;;;;10.20;7.45;;;;;;;;;;4906031;29;20095;-77
2023/08/21 04:02:42;;;;;;;9.80;8.20;;;;;;;;;;4922265;29;20089;-77
2023/08/21 04:05:10;;;;;;;9.20;7.13;;;;;;;;;;4905303;29;20055;-79
2023/08/21 04:07:35;;;;;;;9.02;7.45;;;;;;;;;;4905421;29;20579;-79
2023/08/21 04:10:01;;;;;;;8.30;7.18;;;;;;;;;;4905941;29;20080;-78
2023/08/21 04:12:26;;;;;;;9.52;7.63;;;;;;;;;;4922981;28;21053;-77
2023/08/21 04:14:52;;;;;;;9.65;7.45;;;;;;;;;;4922245;29;20048;-76
2023/08/21 04:17:21;;;;;;;9.23;7.65;;;;;;;;;;4922936;29;20057;-77
2023/08/21 04:19:47;;;;;;;7.88;7.07;;;;;;;;;;4904795;29;20484;-78
2023/08/21 04:22:13;;;;;;;13.13;8.10;;;;;;;;;;4905715;29;20087;-78
2023/08/21 04:24:39;;;;;;;10.15;8.02;;;;;;;;;;4922701;28;20058;-77
2023/08/21 04:27:05;;;;;;;10.70;7.70;;;;;;;;;;4922637;29;20051;-79
2023/08/21 04:29:30;;;;;;;10.10;7.53;;;;;;;;;;4904929;28;20062;-76
2023/08/21 04:31:55;;;;;;;17.88;7.15;;;;;;;;;;4905451;29;20405;-77
2023/08/21 04:34:21;;;;;;;8.15;6.20;;;;;;;;;;4905595;29;20044;-76
2023/08/21 04:36:47;;;;;;;7.43;6.50;;;;;;;;;;4904885;29;20137;-77
2023/08/21 04:39:12;;;;;;;8.18;6.65;;;;;;;;;;4906028;29;20065;-77
2023/08/21 04:41:39;;;;;;;7.22;6.25;;;;;;;;;;4904705;28;20113;-77
2023/08/21 04:44:05;;;;;;;7.35;5.78;;;;;;;;;;4921363;29;20123;-77
2023/08/21 04:46:31;;;;;;;8.70;5.97;;;;;;;;;;4905077;29;20146;-77
2023/08/21 04:48:57;;;;;;;8.65;6.32;;;;;;;;;;4905254;29;20055;-77
2023/08/21 04:51:23;;;;;;;5.90;5.28;;;;;;;;;;4922132;29;20047;-77
2023/08/21 04:53:48;;;;;;;9.32;5.45;;;;;;;;;;4889857;29;20058;-79
2023/08/21 04:56:17;;;;;;;5.78;5.18;;;;;;;;;;4905903;29;20052;-80
2023/08/21 04:58:43;;;;;;;7.70;5.13;;;;;;;;;;4922149;29;20050;-80
2023/08/21 05:01:08;;;;;;;5.35;4.63;;;;;;;;;;4905518;29;20114;-79
2023/08/21 05:03:38;;;;;;;5.28;4.68;;;;;;;;;;4904608;29;20055;-77
2023/08/21 05:06:04;;;;;;;5.57;4.78;;;;;;;;;;4905049;29;20045;-78
2023/08/21 05:08:30;;;;;;;6.28;4.90;;;;;;;;;;4904711;29;20051;-77
2023/08/21 05:10:58;;;;;;;10.88;5.75;;;;;;;;;;4905326;29;20542;-79
2023/08/21 05:13:25;;;;;;;8.55;5.80;;;;;;;;;;4904822;29;20046;-77
2023/08/21 05:15:58;;;;;;;12.98;5.88;;;;;;;;;;4924048;29;20416;-77
2023/08/21 05:18:28;;;;;;;8.63;5.43;;;;;;;;;;4925707;28;20573;-79
2023/08/21 05:20:55;;;;;;;5.25;4.75;;;;;;;;;;4909212;29;20082;-78
2023/08/21 05:23:21;;;;;;;8.50;4.80;;;;;;;;;;4893833;29;20035;-77
2023/08/21 05:25:49;;;;;;;7.18;5.03;;;;;;;;;;4909029;29;20974;-79
2023/08/21 05:28:15;;;;;;;7.47;5.60;;;;;;;;;;4909370;29;20054;-78
2023/08/21 05:30:40;;;;;;;7.00;6.00;;;;;;;;;;4925293;28;20083;-78
2023/08/21 05:33:06;;;;;;;6.20;5.50;;;;;;;;;;4926134;29;20130;-75
2023/08/21 05:35:35;;;;;;;5.70;4.90;;;;;;;;;;4908338;28;20094;-79
2023/08/21 05:38:02;;;;;;;6.05;5.45;;;;;;;;;;4909084;29;20063;-76
2023/08/21 05:40:28;;;;;;;9.95;4.97;;;;;;;;;;4926268;29;20050;-76
2023/08/21 05:42:54;;;;;;;5.28;4.78;;;;;;;;;;4907583;29;20051;-75
2023/08/21 05:45:19;;;;;;;9.45;5.25;;;;;;;;;;4925480;29;20074;-77
2023/08/21 05:47:45;;;;;;;6.38;5.38;;;;;;;;;;4922129;28;20051;-77
2023/08/21 05:50:11;;;;;;;5.97;5.38;;;;;;;;;;4908581;29;20048;-79
2023/08/21 05:52:37;;;;;;;6.72;5.70;;;;;;;;;;4907722;29;20078;-75
2023/08/21 05:55:04;;;;;;;6.38;5.43;;;;;;;;;;4925143;28;20134;-77
2023/08/21 05:57:29;;;;;;;7.63;5.50;;;;;;;;;;4908146;29;20051;-77
2023/08/21 05:59:55;;;;;;;5.97;5.38;;;;;;;;;;4908279;29;20393;-75
2023/08/21 06:02:21;;;;;;;6.13;5.25;;;;;;;;;;4908345;29;20052;-76
2023/08/21 06:04:47;;;;;;;7.20;5.57;;;;;;;;;;4907600;29;20051;-79
2023/08/21 06:07:12;;;;;;;8.95;5.10;;;;;;;;;;4925394;28;20091;-78
2023/08/21 06:09:41;;;;;;;5.88;5.28;;;;;;;;;;4924710;29;20051;-76
2023/08/21 06:12:06;;;;;;;6.65;5.30;;;;;;;;;;4925185;28;20054;-75
2023/08/21 06:14:33;;;;;;;11.23;5.40;;;;;;;;;;4900430;29;20043;-76
2023/08/21 06:17:01;;;;;;;6.65;5.10;;;;;;;;;;4907457;29;20040;-75
2023/08/21 06:19:28;;;;;;;5.13;4.63;;;;;;;;;;4915498;29;20048;-76
2023/08/21 06:21:57;;;;;;;4.95;4.45;;;;;;;;;;4907243;29;20082;-76
2023/08/21 06:24:23;;;;;;;6.20;4.45;;;;;;;;;;4925233;28;20140;-77
2023/08/21 06:26:53;;;;;;;4.38;3.97;;;;;;;;;;4906693;29;20044;-77
2023/08/21 06:29:20;;;;;;;6.40;4.35;;;;;;;;;;4907052;29;20058;-75
2023/08/21 06:31:46;;;;;;;5.47;4.93;;;;;;;;;;4922957;28;20057;-79
2023/08/21 06:34:12;;;;;;;6.53;4.47;;;;;;;;;;4907327;29;20047;-76
2023/08/21 06:36:38;;;;;;;8.77;4.60;;;;;;;;;;4907829;29;20135;-76
2023/08/21 06:39:05;;;;;;;5.47;3.85;;;;;;;;;;4906531;29;20117;-78
2023/08/21 06:41:30;;;;;;;7.55;4.20;;;;;;;;;;4923018;29;20067;-78
2023/08/21 06:43:57;;;;;;;5.55;4.22;;;;;;;;;;4907104;29;20125;-78
2023/08/21 06:46:22;;;;;;;7.47;4.25;;;;;;;;;;4923953;28;20390;-76
2023/08/21 06:48:50;;;;;;;5.88;4.03;;;;;;;;;;4922662;29;20932;-77
2023/08/21 06:51:15;;;;;;;7.03;4.60;;;;;;;;;;4925354;29;20044;-80
2023/08/21 06:53:41;;;;;;;4.40;4.00;;;;;;;;;;4924132;28;20077;-77
2023/08/21 06:56:06;;;;;;;9.50;4.28;;;;;;;;;;4921418;29;20069;-79
2023/08/21 06:58:32;;;;;;;8.05;4.50;;;;;;;;;;4924154;28;20048;-80
2023/08/21 07:00:57;;;;;;;9.45;4.40;;;;;;;;;;4924331;29;20051;-76
2023/08/21 07:03:23;;;;;;;10.80;5.20;;;;;;;;;;4924170;29;20108;-80
2023/08/21 07:05:59;;;;;;;4.57;4.18;;;;;;;;;;4925109;28;20075;-81
2023/08/21 07:08:25;;;;;;;7.45;4.55;;;;;;;;;;4928088;29;20712;-76
2023/08/21 07:10:51;;;;;;;9.00;4.18;;;;;;;;;;4928010;28;20056;-76
2023/08/21 07:13:16;;;;;;;6.97;4.10;;;;;;;;;;4927732;29;20059;-79
2023/08/21 07:15:42;;;;;;;8.13;4.07;;;;;;;;;;4925699;28;20048;-79
2023/08/21 07:18:07;;;;;;;5.70;4.20;;;;;;;;;;4925862;29;20094;-76
2023/08/21 07:20:33;;;;;;;6.28;4.00;;;;;;;;;;4924720;29;20087;-78
2023/08/21 07:23:00;;;;;;;10.35;3.53;;;;;;;;;;4925530;28;20052;-76
2023/08/21 07:25:25;;;;;;;6.35;3.50;;;;;;;;;;4924604;29;20535;-80
2023/08/21 07:27:53;;;;;;;6.00;3.72;;;;;;;;;;4925754;28;20059;-78
2023/08/21 07:30:19;;;;;;;8.05;3.53;;;;;;;;;;4926717;29;20082;-77
2023/08/21 07:32:46;;;;;;;7.60;3.22;;;;;;;;;;4896140;29;20054;-77
2023/08/21 07:35:11;;;;;;;4.72;2.90;;;;;;;;;;4926029;28;20189;-77
2023/08/21 07:37:37;;;;;;;6.65;3.72;;;;;;;;;;4924568;29;20051;-76
2023/08/21 07:40:03;;;;;;;4.57;3.35;;;;;;;;;;4923547;28;20453;-77
2023/08/21 07:42:28;;;;;;;4.25;2.90;;;;;;;;;;4923355;29;20059;-78
2023/08/21 07:44:53;;;;;;;6.40;3.30;;;;;;;;;;4923369;29;20047;-82
2023/08/21 07:47:19;;;;;;;5.25;3.22;;;;;;;;;;4924336;28;20138;-77
2023/08/21 07:49:44;;;;;;;7.10;3.53;;;;;;;;;;4923088;29;20209;-77
2023/08/21 07:52:10;;;;;;;3.75;2.97;;;;;;;;;;4923390;28;20407;-75
2023/08/21 07:54:35;;;;;;;8.60;3.00;;;;;;;;;;4923116;29;20148;-79
2023/08/21 07:57:01;;;;;;;5.35;3.20;;;;;;;;;;4924281;29;20073;-79
2023/08/21 07:59:26;;;;;;;5.18;3.10;;;;;;;;;;4906741;29;20039;-78
2023/08/21 08:01:52;;;;;;;4.10;2.75;;;;;;;;;;4907419;29;20078;-78
2023/08/21 08:04:17;;;;;;;5.00;2.92;;;;;;;;;;4923170;28;20047;-74
2023/08/21 08:06:43;;;;;;;6.53;3.13;;;;;;;;;;4923101;29;20412;-75
2023/08/21 08:09:09;;;;;;;5.40;3.20;;;;;;;;;;4935459;23;20147;-72
2023/08/21 08:11:34;;;;;;;5.20;3.05;;;;;;;;;;4929078;29;20143;-71
2023/08/21 08:13:59;;;;;;;3.08;2.85;;;;;;;;;;4930462;29;20047;-71
2023/08/21 08:16:25;;;;;;;6.28;3.40;;;;;;;;;;4924514;29;20044;-72
2023/08/21 08:18:50;;;;;;;3.42;2.83;;;;;;;;;;4911970;29;20514;-71
2023/08/21 08:21:16;;;;;;;5.35;3.00;;;;;;;;;;4902382;29;20138;-72
2023/08/21 08:23:41;;;;;;;4.85;3.65;;;;;;;;;;4910401;29;20401;-71
2023/08/21 08:26:08;;;;;;;3.35;3.05;;;;;;;;;;4899766;29;20138;-74
2023/08/21 08:28:34;;;;;;;5.28;3.20;;;;;;;;;;4910968;29;20052;-73
2023/08/21 08:31:00;;;;;;;7.60;3.30;;;;;;;;;;4910679;29;20056;-72
2023/08/21 08:33:26;;;;;;;3.55;3.25;;;;;;;;;;4910122;29;20047;-73
2023/08/21 08:35:51;;;;;;;6.97;3.40;;;;;;;;;;4909720;29;20058;-73
2023/08/21 08:38:18;;;;;;;6.93;2.92;;;;;;;;;;4909388;29;20401;-73
2023/08/21 08:40:46;;;;;;;5.18;3.38;;;;;;;;;;4910322;29;20087;-75
2023/08/21 08:43:12;;;;;;;4.70;3.75;;;;;;;;;;4910711;29;20075;-72
2023/08/21 08:45:40;;;;;;;3.60;3.00;;;;;;;;;;4909611;29;20582;-73
2023/08/21 08:48:06;;;;;;;3.60;2.85;;;;;;;;;;4911206;29;20051;-72
2023/08/21 08:50:33;;;;;;;7.03;3.15;;;;;;;;;;4910695;29;20114;-72
2023/08/21 08:53:00;;;;;;;3.20;3.00;;;;;;;;;;4911650;29;20151;-72
2023/08/21 08:55:25;;;;;;;3.60;3.13;;;;;;;;;;4911826;29;20493;-73
2023/08/21 08:57:52;;;;;;;5.90;3.63;;;;;;;;;;4911789;29;20048;-73
2023/08/21 09:00:17;;;;;;;4.57;3.53;;;;;;;;;;4911109;29;20064;-72
2023/08/21 09:02:43;;;;;;;5.40;3.20;;;;;;;;;;4911682;29;20048;-72
2023/08/21 09:05:10;;;;;;;5.28;3.63;;;;;;;;;;4911818;29;20083;-71
2023/08/21 09:07:35;;;;;;;5.95;3.63;;;;;;;;;;4911161;29;20405;-72
2023/08/21 09:10:02;;;;;;;3.40;3.10;;;;;;;;;;4911575;29;20067;-73
2023/08/21 09:12:31;;;;;;;3.83;3.50;;;;;;;;;;4910427;29;20040;-72
2023/08/21 09:14:58;;;;;;;5.80;3.80;;;;;;;;;;4911556;29;20059;-76
2023/08/21 09:17:24;;;;;;;4.18;3.25;;;;;;;;;;4911685;29;20059;-72
2023/08/21 09:19:49;;;;;;;4.45;3.45;;;;;;;;;;4911661;29;20056;-73
2023/08/21 09:22:17;;;;;;;3.58;3.28;;;;;;;;;;4910559;29;20048;-74
2023/08/21 09:25:05;;;;;;;4.63;3.70;;;;;;;;;;4911814;29;20044;-72
2023/08/21 09:27:31;;;;;;;3.10;2.80;;;;;;;;;;4911103;29;20071;-73
2023/08/21 09:29:57;;;;;;;9.35;3.28;;;;;;;;;;4911737;29;20123;-72
2023/08/21 09:32:22;;;;;;;6.55;3.10;;;;;;;;;;4910917;29;20090;-72
2023/08/21 09:34:48;;;;;;;16.02;3.20;;;;;;;;;;4911540;29;20052;-72
2023/08/21 09:37:13;;;;;;;3.33;3.03;;;;;;;;;;4912282;29;20504;-72
2023/08/21 09:39:39;;;;;;;3.75;3.03;;;;;;;;;;4910976;29;20564;-72
2023/08/21 09:42:07;;;;;;;3.47;3.17;;;;;;;;;;4911822;29;20570;-73
2023/08/21 09:44:43;;;;;;;3.80;3.35;;;;;;;;;;4893473;29;20054;-73
2023/08/21 09:47:10;;;;;;;5.45;3.33;;;;;;;;;;4904047;29;20056;-73
2023/08/21 09:49:37;;;;;;;4.93;3.13;;;;;;;;;;4911054;29;20056;-73
2023/08/21 09:52:05;;;;;;;3.38;2.65;;;;;;;;;;4911460;29;20119;-73
2023/08/21 09:54:31;;;;;;;3.60;3.15;;;;;;;;;;4910670;29;20076;-74
2023/08/21 09:57:01;;;;;;;6.05;3.80;;;;;;;;;;4911262;29;20040;-73
2023/08/21 09:59:26;;;;;;;3.22;2.90;;;;;;;;;;4910874;29;20139;-73
2023/08/21 10:01:52;;;;;;;3.47;3.03;;;;;;;;;;4911069;29;20135;-72
2023/08/21 10:04:20;;;;;;;4.38;3.47;;;;;;;;;;4897513;29;20048;-72
2023/08/21 10:06:47;;;;;;;3.85;2.95;;;;;;;;;;4914062;29;20048;-73
2023/08/21 10:09:13;;;;;;;4.53;2.95;;;;;;;;;;4914789;29;20044;-73
2023/08/21 10:11:40;;;;;;;4.53;2.90;;;;;;;;;;4913890;29;20076;-72
2023/08/21 10:14:05;;;;;;;7.57;3.05;;;;;;;;;;4913715;29;20051;-73
2023/08/21 10:16:31;;;;;;;2.70;2.50;;;;;;;;;;4913867;29;20565;-75
2023/08/21 10:19:03;;;;;;;3.83;3.10;;;;;;;;;;4914830;29;20119;-72
2023/08/21 10:21:35;;;;;;;8.05;2.83;;;;;;;;;;4913987;29;20567;-72
2023/08/21 10:24:00;;;;;;;3.65;2.85;;;;;;;;;;4915000;29;20044;-72
2023/08/21 10:26:26;;;;;;;7.45;3.10;;;;;;;;;;4915037;29;20628;-73
2023/08/21 10:28:58;;;;;;;3.80;2.90;;;;;;;;;;4913751;29;20151;-72
2023/08/21 10:31:38;;;;;;;6.05;2.83;;;;;;;;;;4914543;29;20184;-72
2023/08/21 10:34:11;;;;;;;2.83;2.60;;;;;;;;;;4897549;29;20135;-72
2023/08/21 10:37:00;;;;;;;3.33;2.50;;;;;;;;;;4915028;29;20072;-72
2023/08/21 10:39:26;;;;;;;4.95;2.50;;;;;;;;;;4905380;29;20497;-73
2023/08/21 10:42:04;;;;;;;5.25;2.75;;;;;;;;;;4913656;29;20590;-73
2023/08/21 10:44:35;;;;;;;2.42;2.22;;;;;;;;;;4914351;29;20048;-73
2023/08/21 10:47:23;;;;;;;3.25;2.38;;;;;;;;;;4914363;29;20501;-73
2023/08/21 10:49:52;;;;;;;4.72;2.50;;;;;;;;;;4912782;29;20058;-73
2023/08/21 10:52:25;;;;;;;4.45;2.70;;;;;;;;;;4914076;29;20209;-72
2023/08/21 10:54:53;;;;;;;2.88;2.60;;;;;;;;;;4914592;29;20052;-73
2023/08/21 10:57:19;;;;;;;3.67;2.67;;;;;;;;;;4914215;29;20497;-72
2023/08/21 10:59:57;;;;;;;2.60;2.38;;;;;;;;;;4913543;29;20048;-73
2023/08/21 11:02:29;;;;;;;3.67;2.80;;;;;;;;;;4913380;29;20095;-75
2023/08/21 11:04:55;;;;;;;2.80;2.42;;;;;;;;;;4913945;29;20051;-73
2023/08/21 11:07:21;;;;;;;3.10;2.80;;;;;;;;;;4914203;29;20052;-72
2023/08/21 11:09:47;;;;;;;5.20;2.28;;;;;;;;;;4913196;29;20059;-73
2023/08/21 11:12:15;;;;;;;3.53;2.50;;;;;;;;;;4912734;29;20655;-73
2023/08/21 11:14:41;;;;;;;3.58;2.50;;;;;;;;;;4913501;29;20076;-72
2023/08/21 11:17:08;;;;;;;3.30;2.15;;;;;;;;;;4914032;29;20048;-73
2023/08/21 11:19:34;;;;;;;3.22;2.42;;;;;;;;;;4912992;29;20056;-74
2023/08/21 11:22:03;;;;;;;4.13;2.17;;;;;;;;;;4913489;29;20476;-73
2023/08/21 11:24:38;;;;;;;2.47;2.27;;;;;;;;;;4912648;29;20047;-73
2023/08/21 11:27:12;;;;;;;2.00;1.90;;;;;;;;;;4913668;29;20507;-72
2023/08/21 11:29:44;;;;;;;3.05;2.42;;;;;;;;;;4913067;29;20468;-74
2023/08/21 11:32:14;;;;;;;2.55;2.35;;;;;;;;;;4913549;29;20788;-72
2023/08/21 11:34:41;;;;;;;;;;;;;;;;;;4902705;29;20548;-73
2023/08/21 11:37:06;;;;;;;2.60;2.22;;;;;;;;;;4913346;29;20440;-72
2023/08/21 11:39:40;;;;;;;2.55;2.35;;;;;;;;;;4912769;29;20617;-73
2023/08/21 11:42:12;;;;;;;2.60;2.40;;;;;;;;;;4912914;29;20090;-73
2023/08/21 11:44:56;;;;;;;3.03;2.40;;;;;;;;;;4912274;29;20131;-75
2023/08/21 11:47:23;;;;;;;5.10;2.42;;;;;;;;;;4911671;29;20143;-72
2023/08/21 11:49:49;;;;;;;3.00;2.25;;;;;;;;;;4912425;29;20052;-73
2023/08/21 11:52:26;;;;;;;3.63;2.17;;;;;;;;;;4895919;29;20127;-71
2023/08/21 11:54:53;;;;;;;2.42;2.10;;;;;;;;;;4913184;29;20519;-71
2023/08/21 11:57:19;;;;;;;3.83;2.35;;;;;;;;;;4911828;29;20095;-72
2023/08/21 11:59:52;;;;;;;3.78;2.30;;;;;;;;;;4910940;29;20047;-72
2023/08/21 12:02:22;;;;;;;3.00;2.10;;;;;;;;;;4912580;29;20509;-74
2023/08/21 12:05:06;;;;;;;2.30;2.10;;;;;;;;;;4912914;29;20623;-73
2023/08/21 12:07:33;;;;;;;3.75;1.80;;;;;;;;;;4911113;29;20044;-73
2023/08/21 12:09:58;;;;;;;2.30;2.10;;;;;;;;;;4912632;29;20075;-74
2023/08/21 12:12:24;;;;;;;2.05;1.77;;;;;;;;;;4912733;29;20086;-72
2023/08/21 12:14:50;;;;;;;3.40;1.67;;;;;;;;;;4912828;29;20056;-73
2023/08/21 12:17:16;;;;;;;2.22;1.83;;;;;;;;;;4911750;29;20067;-72
2023/08/21 12:19:44;;;;;;;1.92;1.70;;;;;;;;;;4911829;29;20044;-73
2023/08/21 12:22:09;;;;;;;2.85;1.77;;;;;;;;;;4893476;29;20625;-73
2023/08/21 12:24:36;;;;;;;2.47;1.55;;;;;;;;;;4893800;29;20037;-75
2023/08/21 12:27:03;;;;;;;2.35;1.75;;;;;;;;;;4893259;29;20470;-73
2023/08/21 12:29:29;;;;;;;1.88;1.60;;;;;;;;;;4902533;29;20036;-73
2023/08/21 12:31:54;;;;;;;3.33;2.00;;;;;;;;;;4912193;29;20051;-73
2023/08/21 12:34:20;;;;;;;1.70;1.60;;;;;;;;;;4912626;29;20179;-72
2023/08/21 12:36:46;;;;;;;2.95;1.90;;;;;;;;;;4912322;29;20477;-75
2023/08/21 12:39:11;;;;;;;2.17;1.98;;;;;;;;;;4911427;29;20103;-74
2023/08/21 12:41:37;;;;;;;3.42;1.75;;;;;;;;;;4906940;29;20044;-73
2023/08/21 12:44:03;;;;;;;4.50;2.00;;;;;;;;;;4912094;29;20537;-73
2023/08/21 12:46:30;;;;;;;2.15;1.95;;;;;;;;;;4912126;29;20062;-73
2023/08/21 12:48:56;;;;;;;2.50;2.20;;;;;;;;;;4912111;29;20088;-73
2023/08/21 12:51:22;;;;;;;2.28;2.08;;;;;;;;;;4910980;29;20493;-74
2023/08/21 12:53:47;;;;;;;7.97;2.75;;;;;;;;;;4911128;29;20063;-72
2023/08/21 12:56:12;;;;;;;3.90;2.35;;;;;;;;;;4894895;29;20565;-72
2023/08/21 12:58:38;;;;;;;2.95;2.75;;;;;;;;;;4911853;29;20040;-73
2023/08/21 13:01:05;;;;;;;4.78;2.78;;;;;;;;;;4911817;29;20051;-73
2023/08/21 13:03:30;;;;;;;3.45;3.15;;;;;;;;;;4910187;29;20135;-73
2023/08/21 13:05:56;;;;;;;3.20;2.67;;;;;;;;;;4911808;29;20171;-73
2023/08/21 13:08:21;;;;;;;5.72;2.45;;;;;;;;;;4911785;29;20107;-72
2023/08/21 13:10:47;;;;;;;3.55;2.65;;;;;;;;;;4894698;29;20099;-72
2023/08/21 13:13:12;;;;;;;4.40;2.50;;;;;;;;;;4910796;29;20051;-74
2023/08/21 13:15:38;;;;;;;4.07;2.75;;;;;;;;;;4911007;29;20060;-72
2023/08/21 13:18:04;;;;;;;5.18;2.60;;;;;;;;;;4911911;29;20122;-72
2023/08/21 13:20:30;;;;;;;2.95;2.45;;;;;;;;;;4911757;29;20052;-73
2023/08/21 13:22:55;;;;;;;2.55;2.20;;;;;;;;;;4911710;29;20103;-72
2023/08/21 13:25:24;;;;;;;3.50;2.55;;;;;;;;;;4911089;29;20044;-72
2023/08/21 13:27:51;;;;;;;2.58;2.38;;;;;;;;;;4911140;29;20051;-72
2023/08/21 13:30:17;;;;;;;2.30;2.15;;;;;;;;;;4911850;29;20049;-72
2023/08/21 13:32:43;;;;;;;2.88;2.55;;;;;;;;;;4911667;29;20458;-73
2023/08/21 13:35:08;;;;;;;2.45;2.25;;;;;;;;;;4910667;29;20084;-72
2023/08/21 13:37:36;;;;;;;2.13;1.80;;;;;;;;;;4911604;29;20048;-72
2023/08/21 13:40:09;;;;;;;2.40;2.20;;;;;;;;;;4915455;29;20054;-72
2023/08/21 13:42:40;;;;;;;2.70;2.22;;;;;;;;;;4915289;29;20044;-72
2023/08/21 13:45:06;;;;;;;;;;;;;;;;;;4915611;29;20119;-73
2023/08/21 13:47:31;;;;;;;2.38;2.17;;;;;;;;;;4913477;29;20407;-74
2023/08/21 13:49:57;;;;;;;4.20;2.50;;;;;;;;;;4913725;29;20393;-72
2023/08/21 13:52:22;;;;;;;2.47;2.28;;;;;;;;;;4915158;29;20136;-72
2023/08/21 13:54:47;;;;;;;3.33;2.60;;;;;;;;;;4915017;29;20500;-72
2023/08/21 13:57:13;;;;;;;8.10;2.50;;;;;;;;;;4913876;29;20087;-71
2023/08/21 13:59:38;;;;;;;3.38;2.60;;;;;;;;;;4914162;29;20048;-71
2023/08/21 14:02:04;;;;;;;8.20;2.40;;;;;;;;;;4914747;29;20056;-72
2023/08/21 14:04:32;;;;;;;2.78;2.22;;;;;;;;;;4915168;29;20056;-71
2023/08/21 14:06:57;;;;;;;3.13;2.10;;;;;;;;;;4915111;29;20143;-71
2023/08/21 14:09:23;;;;;;;6.65;2.50;;;;;;;;;;4914270;29;20122;-71
2023/08/21 14:11:48;;;;;;;4.07;2.67;;;;;;;;;;4914052;29;20059;-73
2023/08/21 14:14:13;;;;;;;2.70;2.47;;;;;;;;;;4915087;29;20482;-70
2023/08/21 14:16:39;;;;;;;3.88;2.35;;;;;;;;;;4914757;29;20048;-71
2023/08/21 14:19:04;;;;;;;3.17;2.67;;;;;;;;;;4913880;29;20048;-74
2023/08/21 14:21:30;;;;;;;2.75;2.53;;;;;;;;;;4913927;29;20064;-71
2023/08/21 14:23:55;;;;;;;4.50;2.63;;;;;;;;;;4915032;29;20076;-71
2023/08/21 14:26:20;;;;;;;3.60;2.58;;;;;;;;;;4914925;29;20458;-72
2023/08/21 14:28:50;;;;;;;11.43;3.78;;;;;;;;;;4914834;29;20052;-71
2023/08/21 14:31:16;;;;;;;5.82;2.67;;;;;;;;;;4913442;29;20047;-70
2023/08/21 14:33:41;;;;;;;4.15;2.63;;;;;;;;;;4913660;29;20039;-71
2023/08/21 14:36:07;;;;;;;3.72;2.67;;;;;;;;;;4914384;29;20478;-72
2023/08/21 14:38:32;;;;;;;2.78;2.55;;;;;;;;;;4914446;29;20048;-71
2023/08/21 14:40:58;;;;;;;7.90;2.95;;;;;;;;;;4913331;29;20177;-71
2023/08/21 14:43:23;;;;;;;4.50;2.58;;;;;;;;;;4914161;29;20040;-72